createdAt,value
2022-08-17T00:02:26.467Z,100.00
2022-08-17T00:04:54.315Z,100.00
2022-08-17T00:07:20.867Z,100.00
2022-08-17T00:09:47.374Z,100.00
2022-08-17T00:12:43.683Z,100.00
2022-08-17T00:15:00.943Z,100.00
2022-08-17T00:17:27.916Z,100.00
2022-08-17T00:19:54.583Z,100.00
2022-08-17T00:22:31.324Z,100.00
2022-08-17T00:25:07.238Z,100.00
2022-08-17T00:27:34.541Z,100.00
2022-08-17T00:30:01.057Z,100.00
2022-08-17T00:33:14.244Z,100.00
2022-08-17T00:35:19.974Z,100.00
2022-08-17T00:37:46.508Z,100.00
2022-08-17T00:40:15.207Z,100.00
2022-08-17T00:42:43.331Z,100.00
2022-08-17T00:45:12.460Z,100.00
2022-08-17T00:47:39.995Z,100.00
2022-08-17T00:50:12.427Z,100.00
2022-08-17T00:52:56.277Z,100.00
2022-08-17T00:55:25.254Z,100.00
2022-08-17T00:57:57.022Z,100.00
2022-08-17T01:00:34.383Z,100.00
2022-08-17T01:03:07.507Z,100.00
2022-08-17T01:05:42.265Z,100.00
2022-08-17T01:08:13.174Z,100.00
2022-08-17T01:10:59.457Z,100.00
2022-08-17T01:13:35.495Z,100.00
2022-08-17T01:16:12.654Z,100.00
2022-08-17T01:18:39.355Z,100.00
2022-08-17T01:21:24.708Z,100.00
2022-08-17T01:23:51.255Z,100.00
2022-08-17T01:26:18.973Z,100.00
2022-08-17T01:28:55.267Z,100.00
2022-08-17T01:31:28.099Z,100.00
2022-08-17T01:33:54.985Z,100.00
2022-08-17T01:36:21.975Z,100.00
2022-08-17T01:38:48.613Z,100.00
2022-08-17T01:41:16.453Z,100.00
2022-08-17T01:43:52.037Z,100.00
2022-08-17T01:46:27.162Z,100.00
2022-08-17T01:48:55.348Z,100.00
2022-08-17T01:51:22.376Z,100.00
2022-08-17T01:53:54.172Z,100.00
2022-08-17T01:56:24.438Z,100.00
2022-08-17T01:58:52.706Z,100.00
2022-08-17T02:01:24.148Z,100.00
2022-08-17T02:03:56.245Z,100.00
2022-08-17T02:06:52.461Z,100.00
2022-08-17T02:09:19.147Z,100.00
2022-08-17T02:11:49.974Z,100.00
2022-08-17T02:14:16.747Z,100.00
2022-08-17T02:16:43.489Z,100.00
2022-08-17T02:19:14.009Z,100.00
2022-08-17T02:21:42.344Z,100.00
2022-08-17T02:24:13.327Z,100.00
2022-08-17T02:26:40.197Z,100.00
2022-08-17T02:29:07.318Z,100.00
2022-08-17T02:31:35.580Z,100.00
2022-08-17T02:34:03.681Z,100.00
2022-08-17T02:36:34.789Z,100.00
2022-08-17T02:39:04.359Z,100.00
2022-08-17T02:41:31.105Z,100.00
2022-08-17T02:43:57.798Z,100.00
2022-08-17T02:46:28.608Z,100.00
2022-08-17T02:48:55.157Z,100.00
2022-08-17T02:51:21.684Z,100.00
2022-08-17T02:53:48.217Z,100.00
2022-08-17T02:56:14.943Z,100.00
2022-08-17T02:58:41.536Z,100.00
2022-08-17T03:01:10.161Z,100.00
2022-08-17T03:03:37.591Z,100.00
2022-08-17T03:06:04.651Z,100.00
2022-08-17T03:08:31.338Z,100.00
2022-08-17T03:10:57.836Z,100.00
2022-08-17T03:13:24.487Z,100.00
2022-08-17T03:15:51.303Z,100.00
2022-08-17T03:18:24.722Z,100.00
2022-08-17T03:20:55.022Z,100.00
2022-08-17T03:23:24.143Z,100.00
2022-08-17T03:25:53.365Z,100.00
2022-08-17T03:28:21.561Z,100.00
2022-08-17T03:30:48.834Z,100.00
2022-08-17T03:33:16.929Z,100.00
2022-08-17T03:35:44.089Z,100.00
2022-08-17T03:38:12.369Z,100.00
2022-08-17T03:40:57.714Z,100.00
2022-08-17T03:43:28.670Z,100.00
2022-08-17T03:46:28.979Z,100.00
2022-08-17T03:49:19.140Z,100.00
2022-08-17T03:52:04.027Z,100.00
2022-08-17T03:54:48.954Z,100.00
2022-08-17T03:57:16.429Z,100.00
2022-08-17T03:59:43.259Z,100.00
2022-08-17T04:02:17.464Z,100.00
2022-08-17T04:04:44.001Z,100.00
2022-08-17T04:07:10.859Z,100.00
2022-08-17T04:09:37.392Z,100.00
2022-08-17T04:12:05.127Z,100.00
2022-08-17T04:14:52.191Z,100.00
2022-08-17T04:17:25.320Z,100.00
2022-08-17T04:19:52.369Z,100.00
2022-08-17T04:22:32.597Z,100.00
2022-08-17T04:25:19.014Z,100.00
2022-08-17T04:27:45.547Z,100.00
2022-08-17T04:30:12.893Z,100.00
2022-08-17T04:33:04.429Z,100.00
2022-08-17T04:35:41.190Z,100.00
2022-08-17T04:38:08.821Z,97.73
2022-08-17T04:40:54.993Z,96.43
2022-08-17T04:43:24.502Z,94.68
2022-08-17T04:46:00.638Z,91.98
2022-08-17T04:48:36.868Z,91.75
2022-08-17T04:51:14.086Z,90.14
2022-08-17T04:53:44.079Z,90.17
2022-08-17T04:56:16.027Z,88.57
2022-08-17T04:58:49.892Z,85.52
2022-08-17T05:01:23.427Z,82.84
2022-08-17T05:03:51.604Z,80.61
2022-08-17T05:06:18.111Z,79.60
2022-08-17T05:08:44.595Z,78.23
2022-08-17T05:11:11.145Z,77.85
2022-08-17T05:13:37.666Z,78.14
2022-08-17T05:16:04.869Z,79.18
2022-08-17T05:18:31.983Z,78.72
2022-08-17T05:21:00.109Z,77.28
2022-08-17T05:23:38.498Z,76.72
2022-08-17T05:26:09.666Z,75.56
2022-08-17T05:28:40.045Z,72.95
2022-08-17T05:31:07.018Z,67.16
2022-08-17T05:33:36.973Z,64.98
2022-08-17T05:36:06.928Z,65.98
2022-08-17T05:38:33.860Z,65.62
2022-08-17T05:41:02.795Z,61.27
2022-08-17T05:43:32.947Z,60.41
2022-08-17T05:46:13.420Z,58.76
2022-08-17T05:48:47.231Z,57.00
2022-08-17T05:51:32.171Z,52.65
2022-08-17T05:54:36.350Z,50.17
2022-08-17T05:57:08.819Z,47.44
2022-08-17T05:59:44.928Z,46.32
2022-08-17T06:02:14.517Z,45.84
2022-08-17T06:04:46.815Z,45.31
2022-08-17T06:07:25.437Z,45.15
2022-08-17T06:10:00.276Z,50.49
2022-08-17T06:12:39.962Z,50.07
2022-08-17T06:15:24.947Z,50.67
2022-08-17T06:17:55.422Z,46.87
2022-08-17T06:20:23.222Z,44.93
2022-08-17T06:22:54.123Z,46.10
2022-08-17T06:25:31.543Z,46.91
2022-08-17T06:28:24.420Z,45.33
2022-08-17T06:31:00.845Z,44.90
2022-08-17T06:33:34.249Z,43.56
2022-08-17T06:36:25.152Z,42.19
2022-08-17T06:39:04.567Z,41.68
2022-08-17T06:41:58.475Z,41.29
2022-08-17T06:44:49.648Z,41.15
2022-08-17T06:47:31.734Z,39.78
2022-08-17T06:50:15.458Z,38.91
2022-08-17T06:52:59.988Z,38.95
2022-08-17T06:55:37.943Z,38.55
2022-08-17T06:58:16.492Z,37.37
2022-08-17T07:00:47.246Z,39.33
2022-08-17T07:03:38.990Z,41.48
2022-08-17T07:06:12.793Z,42.86
2022-08-17T07:09:05.967Z,41.21
2022-08-17T07:11:40.215Z,40.45
2022-08-17T07:14:30.203Z,42.08
2022-08-17T07:16:59.011Z,40.34
2022-08-17T07:19:31.770Z,37.80
2022-08-17T07:22:18.475Z,39.14
2022-08-17T07:25:21.085Z,38.05
2022-08-17T07:27:54.298Z,37.54
2022-08-17T07:30:27.206Z,39.54
2022-08-17T07:33:02.643Z,39.17
2022-08-17T07:35:37.680Z,40.20
2022-08-17T07:38:25.394Z,38.64
2022-08-17T07:40:57.861Z,36.33
2022-08-17T07:43:26.198Z,35.38
2022-08-17T07:46:29.976Z,35.25
2022-08-17T07:49:03.192Z,34.98
2022-08-17T07:51:37.951Z,35.25
2022-08-17T07:54:22.656Z,35.77
2022-08-17T07:57:29.504Z,34.26
2022-08-17T08:00:03.170Z,35.58
2022-08-17T08:02:38.981Z,36.24
2022-08-17T08:05:12.948Z,35.30
2022-08-17T08:07:55.047Z,34.24
2022-08-17T08:10:27.938Z,32.04
2022-08-17T08:13:21.640Z,35.68
2022-08-17T08:16:11.829Z,37.89
2022-08-17T08:18:54.298Z,34.44
2022-08-17T08:21:36.901Z,31.76
2022-08-17T08:24:18.850Z,30.18
2022-08-17T08:26:55.559Z,33.11
2022-08-17T08:30:05.091Z,34.85
2022-08-17T08:32:45.383Z,34.21
2022-08-17T08:35:17.685Z,38.50
2022-08-17T08:37:44.362Z,38.74
2022-08-17T08:40:35.633Z,35.16
2022-08-17T08:43:22.154Z,33.51
2022-08-17T08:46:10.475Z,32.24
2022-08-17T08:48:55.739Z,34.15
2022-08-17T08:51:47.183Z,37.18
2022-08-17T08:54:14.056Z,36.44
2022-08-17T08:57:11.564Z,35.72
2022-08-17T08:59:58.194Z,35.40
2022-08-17T09:02:43.642Z,35.28
2022-08-17T09:05:31.726Z,37.08
2022-08-17T09:08:25.069Z,34.75
2022-08-17T09:10:56.858Z,34.13
2022-08-17T09:13:41.490Z,33.28
2022-08-17T09:16:55.908Z,33.66
2022-08-17T09:19:48.902Z,35.64
2022-08-17T09:22:37.483Z,33.15
2022-08-17T09:25:12.136Z,33.74
2022-08-17T09:28:00.468Z,34.39
2022-08-17T09:30:36.333Z,34.20
2022-08-17T09:33:08.054Z,33.75
2022-08-17T09:35:49.666Z,32.56
2022-08-17T09:38:34.816Z,34.33
2022-08-17T09:41:39.702Z,34.55
2022-08-17T09:44:40.042Z,34.83
2022-08-17T09:47:45.572Z,35.65
2022-08-17T09:51:01.624Z,37.09
2022-08-17T09:53:11.253Z,33.06
2022-08-17T09:56:05.478Z,33.02
2022-08-17T09:58:40.831Z,35.02
2022-08-17T10:01:31.474Z,35.83
2022-08-17T10:04:17.762Z,36.23
2022-08-17T10:06:58.918Z,36.62
2022-08-17T10:09:37.123Z,35.97
2022-08-17T10:12:20.231Z,34.52
2022-08-17T10:15:07.698Z,32.38
2022-08-17T10:18:08.868Z,32.97
2022-08-17T10:21:15.617Z,31.62
2022-08-17T10:24:03.329Z,33.33
2022-08-17T10:26:46.324Z,33.93
2022-08-17T10:29:28.990Z,34.29
2022-08-17T10:32:04.258Z,34.05
2022-08-17T10:34:51.929Z,32.99
2022-08-17T10:37:46.714Z,33.88
2022-08-17T10:40:38.760Z,35.43
2022-08-17T10:43:30.331Z,34.76
2022-08-17T10:46:31.329Z,32.93
2022-08-17T10:49:17.093Z,33.03
2022-08-17T10:51:47.840Z,33.05
2022-08-17T10:54:35.160Z,31.18
2022-08-17T10:57:02.364Z,29.30
2022-08-17T10:59:35.020Z,29.66
2022-08-17T11:02:04.767Z,29.15
2022-08-17T11:04:34.234Z,28.82
2022-08-17T11:07:11.581Z,29.02
2022-08-17T11:09:55.013Z,28.41
2022-08-17T11:12:49.430Z,28.56
2022-08-17T11:15:37.975Z,28.80
2022-08-17T11:18:07.280Z,32.50
2022-08-17T11:20:54.562Z,31.49
2022-08-17T11:23:34.756Z,32.63
2022-08-17T11:26:04.216Z,35.00
2022-08-17T11:28:50.401Z,33.77
2022-08-17T11:31:39.117Z,31.99
2022-08-17T11:34:19.570Z,32.98
2022-08-17T11:37:01.167Z,34.08
2022-08-17T11:39:45.372Z,34.83
2022-08-17T11:42:32.578Z,34.55
2022-08-17T11:45:32.366Z,33.15
2022-08-17T11:48:46.199Z,34.96
2022-08-17T11:51:33.839Z,32.83
2022-08-17T11:54:34.847Z,31.70
2022-08-17T11:57:26.455Z,30.09
2022-08-17T12:00:00.145Z,30.87
2022-08-17T12:02:32.838Z,34.97
2022-08-17T12:05:27.516Z,35.88
2022-08-17T12:07:57.134Z,36.90
2022-08-17T12:10:31.889Z,37.78
2022-08-17T12:13:03.924Z,39.49
2022-08-17T12:15:35.311Z,38.21
2022-08-17T12:18:02.001Z,39.54
2022-08-17T12:20:40.066Z,40.15
2022-08-17T12:23:36.075Z,40.15
2022-08-17T12:26:17.700Z,39.08
2022-08-17T12:28:47.798Z,35.83
2022-08-17T12:31:26.586Z,38.06
2022-08-17T12:33:53.405Z,38.83
2022-08-17T12:36:24.833Z,39.11
2022-08-17T12:39:13.102Z,39.67
2022-08-17T12:41:44.902Z,41.00
2022-08-17T12:44:21.199Z,42.24
2022-08-17T12:47:21.110Z,42.54
2022-08-17T12:49:51.550Z,41.97
2022-08-17T12:52:25.760Z,41.62
2022-08-17T12:55:02.073Z,41.24
2022-08-17T12:57:42.540Z,41.62
2022-08-17T13:00:25.686Z,39.79
2022-08-17T13:03:09.559Z,39.39
2022-08-17T13:05:53.809Z,40.53
2022-08-17T13:08:25.603Z,39.77
2022-08-17T13:11:01.789Z,39.10
2022-08-17T13:13:31.837Z,38.96
2022-08-17T13:16:00.318Z,38.77
2022-08-17T13:18:35.974Z,40.35
2022-08-17T13:21:02.831Z,40.63
2022-08-17T13:23:32.254Z,40.19
2022-08-17T13:26:07.741Z,39.18
2022-08-17T13:28:37.575Z,39.15
2022-08-17T13:31:26.308Z,39.42
2022-08-17T13:33:52.987Z,39.75
2022-08-17T13:36:32.086Z,40.68
2022-08-17T13:39:18.917Z,41.72
2022-08-17T13:41:47.876Z,41.10
2022-08-17T13:44:50.019Z,39.70
2022-08-17T13:47:19.930Z,39.72
2022-08-17T13:49:48.886Z,39.30
2022-08-17T13:52:39.244Z,41.38
2022-08-17T13:55:21.265Z,40.05
2022-08-17T13:58:03.682Z,38.92
2022-08-17T14:00:36.545Z,40.37
2022-08-17T14:03:04.822Z,39.13
2022-08-17T14:05:32.506Z,38.59
2022-08-17T14:08:06.560Z,38.52
2022-08-17T14:10:36.266Z,40.02
2022-08-17T14:13:03.386Z,40.91
2022-08-17T14:15:55.816Z,40.31
2022-08-17T14:18:49.821Z,39.00
2022-08-17T14:21:08.741Z,39.59
2022-08-17T14:23:37.077Z,40.08
2022-08-17T14:26:04.718Z,39.54
2022-08-17T14:28:31.223Z,39.36
2022-08-17T14:31:00.800Z,39.65
2022-08-17T14:33:29.052Z,39.59
2022-08-17T14:35:55.914Z,39.11
2022-08-17T14:38:22.427Z,39.10
2022-08-17T14:40:49.314Z,38.66
2022-08-17T14:43:15.977Z,39.79
2022-08-17T14:45:43.163Z,39.70
2022-08-17T14:48:10.558Z,38.77
2022-08-17T14:50:41.157Z,40.06
2022-08-17T14:53:11.128Z,39.89
2022-08-17T14:55:40.414Z,40.16
2022-08-17T14:58:07.555Z,41.44
2022-08-17T15:00:34.877Z,39.76
2022-08-17T15:03:01.937Z,40.22
2022-08-17T15:05:34.742Z,41.65
2022-08-17T15:08:02.775Z,41.67
2022-08-17T15:10:30.306Z,42.93
2022-08-17T15:12:57.800Z,41.85
2022-08-17T15:15:24.688Z,41.06
2022-08-17T15:17:51.710Z,39.56
2022-08-17T15:20:23.852Z,39.25
2022-08-17T15:22:50.921Z,38.84
2022-08-17T15:25:19.073Z,39.57
2022-08-17T15:27:45.769Z,38.80
2022-08-17T15:30:12.878Z,40.21
2022-08-17T15:32:50.806Z,39.65
2022-08-17T15:35:26.804Z,39.91
2022-08-17T15:37:55.490Z,40.67
2022-08-17T15:40:22.015Z,39.01
2022-08-17T15:42:48.587Z,39.51
2022-08-17T15:45:19.328Z,39.35
2022-08-17T15:47:46.582Z,40.55
2022-08-17T15:50:13.251Z,38.83
2022-08-17T15:52:40.571Z,39.39
2022-08-17T15:55:11.639Z,39.76
2022-08-17T15:57:38.403Z,39.71
2022-08-17T16:00:06.916Z,38.93
2022-08-17T16:03:15.019Z,39.56
2022-08-17T16:05:27.331Z,40.06
2022-08-17T16:07:55.775Z,42.10
2022-08-17T16:10:23.314Z,40.04
2022-08-17T16:13:02.377Z,39.58
2022-08-17T16:15:31.215Z,39.52
2022-08-17T16:17:57.755Z,40.13
2022-08-17T16:20:25.995Z,40.00
2022-08-17T16:22:52.710Z,40.72
2022-08-17T16:25:52.344Z,40.29
2022-08-17T16:28:15.133Z,41.12
2022-08-17T16:30:41.830Z,43.15
2022-08-17T16:33:11.578Z,43.72
2022-08-17T16:35:38.731Z,41.44
2022-08-17T16:38:05.551Z,40.86
2022-08-17T16:40:35.770Z,41.73
2022-08-17T16:43:02.845Z,42.57
2022-08-17T16:45:39.920Z,44.97
2022-08-17T16:48:07.896Z,46.52
2022-08-17T16:50:34.495Z,45.43
2022-08-17T16:53:10.335Z,45.20
2022-08-17T16:55:36.979Z,44.91
2022-08-17T16:58:08.784Z,44.97
2022-08-17T17:00:36.258Z,44.38
2022-08-17T17:03:19.817Z,44.37
2022-08-17T17:06:22.460Z,47.81
2022-08-17T17:09:13.367Z,47.43
2022-08-17T17:11:50.912Z,47.81
2022-08-17T17:14:25.534Z,50.09
2022-08-17T17:17:13.482Z,50.99
2022-08-17T17:20:18.136Z,51.53
2022-08-17T17:22:48.223Z,53.94
2022-08-17T17:25:26.721Z,56.20
2022-08-17T17:28:04.611Z,56.96
2022-08-17T17:30:40.234Z,58.52
2022-08-17T17:33:17.773Z,59.17
2022-08-17T17:35:47.782Z,57.70
2022-08-17T17:38:23.124Z,57.84
2022-08-17T17:41:03.150Z,61.00
2022-08-17T17:43:40.499Z,61.27
2022-08-17T17:46:29.281Z,60.56
2022-08-17T17:48:59.574Z,60.69
2022-08-17T17:52:06.681Z,57.47
2022-08-17T17:54:39.167Z,57.72
2022-08-17T17:57:27.204Z,56.71
2022-08-17T18:00:06.930Z,58.22
2022-08-17T18:02:58.169Z,58.25
2022-08-17T18:05:36.819Z,60.45
2022-08-17T18:08:32.375Z,60.55
2022-08-17T18:11:24.074Z,64.60
2022-08-17T18:13:57.492Z,68.39
2022-08-17T18:16:27.425Z,70.37
2022-08-17T18:18:57.687Z,72.13
2022-08-17T18:21:37.967Z,73.51
2022-08-17T18:24:07.870Z,74.07
2022-08-17T18:26:45.092Z,72.08
2022-08-17T18:29:42.737Z,71.04
2022-08-17T18:32:34.553Z,71.15
2022-08-17T18:35:09.802Z,74.52
2022-08-17T18:37:47.634Z,76.65
2022-08-17T18:40:17.066Z,73.76
2022-08-17T18:42:58.303Z,73.88
2022-08-17T18:45:34.084Z,74.16
2022-08-17T18:48:01.834Z,73.19
2022-08-17T18:50:41.331Z,74.24
2022-08-17T18:53:40.819Z,74.82
2022-08-17T18:56:23.033Z,73.81
2022-08-17T18:59:00.589Z,75.20
2022-08-17T19:01:41.919Z,74.51
2022-08-17T19:05:01.487Z,75.06
2022-08-17T19:07:34.591Z,75.97
2022-08-17T19:10:14.903Z,77.96
2022-08-17T19:12:51.672Z,78.69
2022-08-17T19:15:27.188Z,80.96
2022-08-17T19:18:02.404Z,82.37
2022-08-17T19:20:34.843Z,82.92
2022-08-17T19:23:19.849Z,84.23
2022-08-17T19:26:50.701Z,84.25
2022-08-17T19:29:13.533Z,81.88
2022-08-17T19:31:40.784Z,82.21
2022-08-17T19:34:07.327Z,83.76
2022-08-17T19:36:55.241Z,85.10
2022-08-17T19:39:37.952Z,84.16
2022-08-17T19:42:15.116Z,84.71
2022-08-17T19:44:47.689Z,84.54
2022-08-17T19:47:53.390Z,83.66
2022-08-17T19:50:29.294Z,85.96
2022-08-17T19:53:11.892Z,89.54
2022-08-17T19:56:08.343Z,91.74
2022-08-17T19:58:51.586Z,90.93
2022-08-17T20:01:34.849Z,92.16
2022-08-17T20:04:20.838Z,93.60
2022-08-17T20:06:49.560Z,94.27
2022-08-17T20:09:25.076Z,93.52
2022-08-17T20:12:07.721Z,93.85
2022-08-17T20:14:53.904Z,93.45
2022-08-17T20:17:30.445Z,92.91
2022-08-17T20:20:36.080Z,92.83
2022-08-17T20:23:12.391Z,94.11
2022-08-17T20:25:47.628Z,95.41
2022-08-17T20:28:27.879Z,96.84
2022-08-17T20:30:54.812Z,96.67
2022-08-17T20:33:36.701Z,98.70
2022-08-17T20:36:18.150Z,98.62
2022-08-17T20:38:46.248Z,97.89
2022-08-17T20:41:52.964Z,98.57
2022-08-17T20:44:33.129Z,99.73
2022-08-17T20:47:29.123Z,99.57
2022-08-17T20:50:05.128Z,99.14
2022-08-17T20:52:54.295Z,99.32
2022-08-17T20:55:36.340Z,100.00
2022-08-17T20:58:18.596Z,99.79
2022-08-17T21:00:57.456Z,98.11
2022-08-17T21:03:24.131Z,98.84
2022-08-17T21:06:14.413Z,99.68
2022-08-17T21:09:06.282Z,98.21
2022-08-17T21:12:02.867Z,98.36
2022-08-17T21:14:59.657Z,100.00
2022-08-17T21:17:39.453Z,100.00
2022-08-17T21:20:32.560Z,100.00
2022-08-17T21:23:02.702Z,100.00
2022-08-17T21:25:48.902Z,100.00
2022-08-17T21:28:59.917Z,100.00
2022-08-17T21:31:47.534Z,100.00
2022-08-17T21:34:23.664Z,99.93
2022-08-17T21:36:50.831Z,99.27
2022-08-17T21:39:23.282Z,99.50
2022-08-17T21:41:57.556Z,99.35
2022-08-17T21:44:35.104Z,98.90
2022-08-17T21:47:19.517Z,98.91
2022-08-17T21:49:46.382Z,99.25
2022-08-17T21:52:15.795Z,99.17
2022-08-17T21:54:53.235Z,99.45
2022-08-17T21:57:23.924Z,99.11
2022-08-17T21:59:53.448Z,98.29
2022-08-17T22:02:24.049Z,98.49
2022-08-17T22:05:07.141Z,98.45
2022-08-17T22:07:41.543Z,97.43
2022-08-17T22:10:46.291Z,96.68
2022-08-17T22:13:17.123Z,96.47
2022-08-17T22:15:49.740Z,97.30
2022-08-17T22:18:26.903Z,96.85
2022-08-17T22:20:57.939Z,96.95
2022-08-17T22:23:48.390Z,97.52
2022-08-17T22:26:19.801Z,98.64
2022-08-17T22:28:57.220Z,99.71
2022-08-17T22:31:29.833Z,100.00
2022-08-17T22:34:02.218Z,100.00
2022-08-17T22:36:30.836Z,100.00
2022-08-17T22:39:00.153Z,100.00
2022-08-17T22:41:40.438Z,100.00
2022-08-17T22:44:15.388Z,100.00
2022-08-17T22:46:59.990Z,100.00
2022-08-17T22:49:54.068Z,100.00
2022-08-17T22:52:58.862Z,100.00
2022-08-17T22:55:45.697Z,100.00
2022-08-17T22:58:35.202Z,100.00
2022-08-17T23:01:28.430Z,100.00
2022-08-17T23:04:04.186Z,100.00
2022-08-17T23:06:33.964Z,100.00
2022-08-17T23:09:03.639Z,100.00
2022-08-17T23:11:48.827Z,100.00
2022-08-17T23:14:20.133Z,100.00
2022-08-17T23:16:50.410Z,100.00
2022-08-17T23:19:21.522Z,100.00
2022-08-17T23:21:53.807Z,100.00
2022-08-17T23:24:24.146Z,100.00
2022-08-17T23:26:51.012Z,100.00
2022-08-17T23:29:20.174Z,100.00
2022-08-17T23:31:47.520Z,100.00
2022-08-17T23:34:14.991Z,100.00
2022-08-17T23:36:42.077Z,100.00
2022-08-17T23:39:08.694Z,100.00
2022-08-17T23:41:38.879Z,100.00
2022-08-17T23:46:52.208Z,100.00
2022-08-17T23:49:19.265Z,100.00
2022-08-17T23:51:49.932Z,100.00
2022-08-17T23:54:34.103Z,100.00
2022-08-17T23:57:02.118Z,100.00
2022-08-17T23:59:29.279Z,100.00
